Joppa, Illinois
Current Conditions -  °F | °C
As of 8:15 AM on Wednesday 28 Jan 2015 (Local Time) from KM30 Reporting Station
Haze Haze  
Wind Chill: 31°   Ceiling: Unl
Heat Index: 31°   Visibility: 3mi
Dew Point: 31°   Wind: 3mph
Humidity: 100%   Direction: 90°E
Pressure: 30.3"   Gusts: NA
Location:  37.21°N, 88.84°W
Report Text: KM30 281415Z AUTO 09003KT 3SM BR CLR M01/M01 A3030 RMK AO2 T10071007
Loading
Personal Weather Stations






























Interactive Weather Map New forecast layout! Learn more

10-Day Weather Forecast

Advertisements
Track Severe Weather on mobile